createdAt,value
2019-05-17T00:02:26.560Z,51.20
2019-05-17T00:05:31.011Z,52.20
2019-05-17T00:08:38.076Z,45.60
2019-05-17T00:11:41.410Z,44.20
2019-05-17T00:14:47.281Z,43.07
2019-05-17T00:17:51.760Z,48.70
2019-05-17T00:20:56.956Z,36.23
2019-05-17T00:24:01.523Z,38.67
2019-05-17T00:27:06.705Z,36.80
2019-05-17T00:30:11.520Z,37.33
2019-05-17T00:33:17.011Z,33.03
2019-05-17T00:36:21.502Z,35.13
2019-05-17T00:39:27.189Z,35.83
2019-05-17T00:42:31.748Z,32.07
2019-05-17T00:45:37.633Z,31.80
2019-05-17T00:48:42.289Z,35.80
2019-05-17T00:51:47.445Z,31.77
2019-05-17T00:54:51.903Z,30.27
2019-05-17T00:57:56.600Z,27.10
2019-05-17T01:01:00.933Z,31.57
2019-05-17T01:04:06.813Z,30.57
2019-05-17T01:07:11.289Z,28.93
2019-05-17T01:10:16.626Z,28.17
2019-05-17T01:13:21.128Z,28.57
2019-05-17T01:16:27.238Z,28.80
2019-05-17T01:19:31.637Z,27.40
2019-05-17T01:22:36.709Z,27.57
2019-05-17T01:25:41.207Z,25.67
2019-05-17T01:28:46.737Z,26.67
2019-05-17T01:31:51.154Z,27.67
2019-05-17T01:34:56.448Z,34.10
2019-05-17T01:38:00.906Z,35.40
2019-05-17T01:41:07.179Z,32.47
2019-05-17T01:44:11.497Z,46.57
2019-05-17T01:47:16.625Z,40.50
2019-05-17T01:50:21.080Z,48.67
2019-05-17T01:53:27.064Z,47.50
2019-05-17T01:56:31.587Z,49.03
2019-05-17T01:59:37.319Z,48.80
2019-05-17T02:02:43.540Z,52.40
2019-05-17T02:05:47.850Z,52.90
2019-05-17T02:08:52.353Z,61.33
2019-05-17T02:11:57.173Z,50.97
2019-05-17T02:15:01.696Z,54.53
2019-05-17T02:18:07.137Z,63.40
2019-05-17T02:21:11.619Z,57.17
2019-05-17T02:24:16.938Z,57.37
2019-05-17T02:27:24.284Z,55.70
2019-05-17T02:30:28.000Z,61.90
2019-05-17T02:33:33.380Z,57.17
2019-05-17T02:36:37.785Z,65.93
2019-05-17T02:39:53.816Z,67.60
2019-05-17T02:42:48.210Z,68.73
2019-05-17T02:45:52.955Z,66.60
2019-05-17T02:48:57.379Z,61.57
2019-05-17T02:52:03.324Z,64.57
2019-05-17T02:55:08.432Z,62.70
2019-05-17T02:58:13.003Z,68.20
2019-05-17T03:01:17.270Z,61.97
2019-05-17T03:04:23.600Z,59.97
2019-05-17T03:07:27.583Z,63.13
2019-05-17T03:10:33.486Z,57.80
2019-05-17T03:13:37.905Z,61.47
2019-05-17T03:16:43.021Z,55.77
2019-05-17T03:19:47.759Z,57.10
2019-05-17T03:22:52.640Z,55.93
2019-05-17T03:25:57.277Z,52.40
2019-05-17T03:29:03.259Z,52.17
2019-05-17T03:32:09.579Z,49.50
2019-05-17T03:35:16.788Z,49.30
2019-05-17T03:38:22.749Z,49.47
2019-05-17T03:41:29.209Z,49.70
2019-05-17T03:44:33.223Z,52.70
2019-05-17T03:47:37.808Z,49.67
2019-05-17T03:50:43.539Z,54.47
2019-05-17T03:53:48.336Z,50.70
2019-05-17T03:56:53.210Z,50.33
2019-05-17T03:59:57.807Z,51.97
2019-05-17T04:03:02.943Z,55.87
2019-05-17T04:06:07.646Z,54.13
2019-05-17T04:09:13.735Z,52.00
2019-05-17T04:12:17.977Z,53.47
2019-05-17T04:15:24.086Z,50.37
2019-05-17T04:18:28.469Z,49.70
2019-05-17T04:21:34.198Z,49.03
2019-05-17T04:24:38.847Z,50.00
2019-05-17T04:27:44.091Z,54.10
2019-05-17T04:30:48.517Z,50.43
2019-05-17T04:33:53.648Z,47.10
2019-05-17T04:36:58.170Z,51.30
2019-05-17T04:40:03.495Z,51.80
2019-05-17T04:43:08.231Z,56.30
2019-05-17T04:46:14.067Z,56.47
2019-05-17T04:49:18.446Z,64.50
2019-05-17T04:52:23.042Z,61.97
2019-05-17T04:55:27.339Z,71.97
2019-05-17T04:58:33.538Z,72.53
2019-05-17T05:01:37.835Z,74.97
2019-05-17T05:04:43.470Z,84.97
2019-05-17T05:07:49.105Z,80.03
2019-05-17T05:10:53.810Z,84.87
2019-05-17T05:13:58.273Z,83.03
2019-05-17T05:17:02.804Z,80.27
2019-05-17T05:20:08.005Z,85.47
2019-05-17T05:23:13.183Z,90.50
2019-05-17T05:26:17.728Z,97.70
2019-05-17T05:29:22.044Z,94.40
2019-05-17T05:32:26.414Z,90.90
2019-05-17T05:35:31.821Z,89.60
2019-05-17T05:38:36.311Z,79.70
2019-05-17T05:41:42.825Z,87.63
2019-05-17T05:44:47.485Z,83.57
2019-05-17T05:47:52.173Z,93.47
2019-05-17T05:50:56.555Z,98.47
2019-05-17T05:54:01.584Z,93.80
2019-05-17T05:57:06.209Z,102.07
2019-05-17T06:00:12.818Z,93.93
2019-05-17T06:03:17.326Z,97.47
2019-05-17T06:06:21.743Z,99.10
2019-05-17T06:09:26.123Z,102.73
2019-05-17T06:12:32.236Z,112.87
2019-05-17T06:15:36.836Z,118.70
2019-05-17T06:18:42.512Z,94.93
2019-05-17T06:21:47.116Z,101.47
2019-05-17T06:24:52.130Z,94.37
2019-05-17T06:27:56.505Z,87.40
2019-05-17T06:31:02.944Z,88.73
2019-05-17T06:34:06.964Z,95.70
2019-05-17T06:37:13.306Z,96.03
2019-05-17T06:40:17.580Z,96.10
2019-05-17T06:43:22.068Z,86.77
2019-05-17T06:46:26.484Z,80.70
2019-05-17T06:49:31.830Z,82.03
2019-05-17T06:52:36.682Z,80.03
2019-05-17T06:55:42.397Z,80.50
2019-05-17T06:58:47.171Z,76.50
2019-05-17T07:01:51.915Z,68.73
2019-05-17T07:04:57.872Z,63.60
2019-05-17T07:08:02.239Z,69.90
2019-05-17T07:11:06.709Z,62.50
2019-05-17T07:14:11.148Z,64.63
2019-05-17T07:17:15.525Z,63.67
2019-05-17T07:20:21.044Z,59.90
2019-05-17T07:23:25.398Z,55.70
2019-05-17T07:26:30.335Z,60.00
2019-05-17T07:29:34.780Z,60.17
2019-05-17T07:32:40.521Z,57.57
2019-05-17T07:35:50.204Z,55.57
2019-05-17T07:38:54.769Z,56.60
2019-05-17T07:42:05.607Z,51.93
2019-05-17T07:45:10.463Z,52.90
2019-05-17T07:48:14.972Z,56.70
2019-05-17T07:51:19.645Z,47.83
2019-05-17T07:54:24.112Z,52.93
2019-05-17T07:57:29.982Z,56.30
2019-05-17T08:00:34.445Z,50.43
2019-05-17T08:03:40.551Z,50.63
2019-05-17T08:06:44.979Z,53.33
2019-05-17T08:09:50.683Z,45.27
2019-05-17T08:12:55.155Z,51.07
2019-05-17T08:15:59.641Z,47.73
2019-05-17T08:19:04.046Z,46.43
2019-05-17T08:22:09.751Z,40.20
2019-05-17T08:25:14.839Z,40.57
2019-05-17T08:28:21.403Z,42.00
2019-05-17T08:31:25.305Z,40.20
2019-05-17T08:34:29.811Z,40.53
2019-05-17T08:37:34.241Z,38.50
2019-05-17T08:40:40.421Z,35.30
2019-05-17T08:43:46.868Z,34.10
2019-05-17T08:46:50.929Z,38.87
2019-05-17T08:49:55.413Z,34.60
2019-05-17T08:53:00.032Z,36.27
2019-05-17T08:56:04.543Z,31.73
2019-05-17T08:59:09.623Z,33.37
2019-05-17T09:02:14.090Z,35.33
2019-05-17T09:05:21.221Z,33.03
2019-05-17T09:08:24.773Z,30.80
2019-05-17T09:11:30.285Z,32.70
2019-05-17T09:14:37.156Z,31.00
2019-05-17T09:17:41.644Z,32.97
2019-05-17T09:20:46.255Z,34.60
2019-05-17T09:23:50.661Z,29.50
2019-05-17T09:26:59.854Z,29.60
2019-05-17T09:30:04.692Z,30.87
2019-05-17T09:33:11.388Z,28.73
2019-05-17T09:36:15.279Z,31.63
2019-05-17T09:39:20.087Z,26.93
2019-05-17T09:42:24.672Z,27.03
2019-05-17T09:45:30.671Z,26.20
2019-05-17T09:48:35.267Z,26.93
2019-05-17T09:51:39.735Z,26.07
2019-05-17T09:54:45.428Z,24.93
2019-05-17T09:57:50.186Z,25.10
2019-05-17T10:00:56.532Z,25.10
2019-05-17T10:04:00.922Z,25.87
2019-05-17T10:07:05.859Z,23.10
2019-05-17T10:10:11.859Z,23.27
2019-05-17T10:13:16.411Z,23.20
2019-05-17T10:16:21.085Z,24.13
2019-05-17T10:19:25.714Z,24.70
2019-05-17T10:22:30.584Z,21.83
2019-05-17T10:25:36.128Z,24.47
2019-05-17T10:28:41.283Z,22.80
2019-05-17T10:31:46.133Z,23.93
2019-05-17T10:34:50.724Z,21.73
2019-05-17T10:37:59.723Z,19.57
2019-05-17T10:41:04.938Z,21.27
2019-05-17T10:44:09.738Z,22.47
2019-05-17T10:47:14.452Z,18.20
2019-05-17T10:50:20.591Z,18.10
2019-05-17T10:53:25.551Z,17.97
2019-05-17T10:56:30.124Z,18.73
2019-05-17T10:59:36.447Z,17.57
2019-05-17T11:02:41.218Z,17.63
2019-05-17T11:05:45.869Z,17.63
2019-05-17T11:08:50.700Z,19.27
2019-05-17T11:11:55.376Z,17.30
2019-05-17T11:15:10.967Z,16.10
2019-05-17T11:18:07.349Z,15.13
2019-05-17T11:21:12.114Z,17.43
2019-05-17T11:24:20.054Z,14.83
2019-05-17T11:27:24.897Z,11.67
2019-05-17T11:30:29.860Z,10.17
2019-05-17T11:33:34.627Z,14.37
2019-05-17T11:36:40.141Z,13.87
2019-05-17T11:39:44.776Z,13.47
2019-05-17T11:42:49.499Z,11.63
2019-05-17T11:45:54.084Z,12.30
2019-05-17T11:48:58.583Z,14.20
2019-05-17T11:52:03.173Z,12.77
2019-05-17T11:55:08.121Z,13.20
2019-05-17T11:58:12.706Z,11.70
2019-05-17T12:01:17.192Z,11.70
2019-05-17T12:04:21.718Z,12.17
2019-05-17T12:07:26.170Z,10.30
2019-05-17T12:10:30.608Z,12.97
2019-05-17T12:13:35.072Z,10.37
2019-05-17T12:16:40.194Z,12.23
2019-05-17T12:19:44.901Z,12.03
2019-05-17T12:22:49.619Z,12.77
2019-05-17T12:25:54.221Z,12.50
2019-05-17T12:28:58.812Z,14.13
2019-05-17T12:32:04.335Z,14.23
2019-05-17T12:35:09.264Z,15.17
2019-05-17T12:38:13.980Z,16.50
2019-05-17T12:41:18.689Z,18.40
2019-05-17T12:44:23.358Z,16.67
2019-05-17T12:47:28.209Z,20.47
2019-05-17T12:50:32.782Z,21.47
2019-05-17T12:53:38.637Z,15.43
2019-05-17T12:56:43.323Z,16.33
2019-05-17T12:59:47.970Z,16.40
2019-05-17T13:02:52.715Z,20.63
2019-05-17T13:05:57.650Z,17.13
2019-05-17T13:09:02.275Z,21.13
2019-05-17T13:12:07.009Z,17.37
2019-05-17T13:15:12.045Z,17.03
2019-05-17T13:18:16.722Z,19.67
2019-05-17T13:21:21.635Z,16.37
2019-05-17T13:24:26.084Z,17.20
2019-05-17T13:27:30.606Z,18.93
2019-05-17T13:30:35.233Z,17.57
2019-05-17T13:33:40.987Z,14.43
2019-05-17T13:36:45.780Z,15.13
2019-05-17T13:39:50.476Z,15.33
2019-05-17T13:43:04.384Z,9.40
2019-05-17T13:46:08.966Z,8.23
2019-05-17T13:49:13.423Z,10.07
2019-05-17T13:52:18.084Z,11.97
2019-05-17T13:55:22.584Z,10.83
2019-05-17T13:58:26.957Z,14.30
2019-05-17T14:01:31.584Z,14.30
2019-05-17T14:04:35.960Z,16.63
2019-05-17T14:07:41.931Z,17.20
2019-05-17T14:10:47.221Z,15.63
2019-05-17T14:13:51.666Z,14.40
2019-05-17T14:16:57.471Z,12.97
2019-05-17T14:20:01.961Z,14.93
2019-05-17T14:23:06.384Z,16.33
2019-05-17T14:26:10.856Z,14.27
2019-05-17T14:29:15.279Z,14.87
2019-05-17T14:32:19.720Z,13.37
2019-05-17T14:35:24.164Z,13.97
2019-05-17T14:38:28.618Z,12.73
2019-05-17T14:41:33.051Z,12.77
2019-05-17T14:44:37.899Z,13.67
2019-05-17T14:47:42.369Z,8.87
2019-05-17T14:50:47.207Z,10.20
2019-05-17T14:53:51.722Z,11.70
2019-05-17T14:56:56.214Z,9.83
2019-05-17T15:00:00.606Z,8.93
2019-05-17T15:03:07.516Z,8.93
2019-05-17T15:06:11.597Z,6.63
2019-05-17T15:09:16.092Z,7.67
2019-05-17T15:12:28.241Z,6.93
2019-05-17T15:15:27.153Z,7.33
2019-05-17T15:18:31.765Z,6.80
2019-05-17T15:21:36.263Z,4.53
2019-05-17T15:24:40.694Z,6.13
2019-05-17T15:27:45.131Z,6.40
2019-05-17T15:30:49.538Z,7.47
2019-05-17T15:33:53.887Z,7.57
2019-05-17T15:36:58.592Z,8.17
2019-05-17T15:40:03.342Z,8.23
2019-05-17T15:43:07.841Z,10.97
2019-05-17T15:46:12.509Z,7.73
2019-05-17T15:49:17.306Z,9.83
2019-05-17T15:52:21.854Z,7.93
2019-05-17T15:55:26.307Z,10.77
2019-05-17T15:58:30.832Z,9.57
2019-05-17T16:01:35.314Z,9.50
2019-05-17T16:04:39.873Z,10.73
2019-05-17T16:07:44.971Z,12.17
2019-05-17T16:10:50.710Z,11.80
2019-05-17T16:13:55.180Z,15.57
2019-05-17T16:16:59.639Z,15.60
2019-05-17T16:20:04.594Z,12.07
2019-05-17T16:23:09.119Z,14.70
2019-05-17T16:26:13.545Z,14.07
2019-05-17T16:29:18.459Z,12.80
2019-05-17T16:32:22.886Z,12.37
2019-05-17T16:35:27.721Z,12.10
2019-05-17T16:38:32.241Z,10.37
2019-05-17T16:41:36.823Z,14.10
2019-05-17T16:44:41.231Z,11.87
2019-05-17T16:47:45.730Z,11.40
2019-05-17T16:50:50.440Z,10.67
2019-05-17T16:53:56.047Z,14.60
2019-05-17T16:57:00.553Z,13.57
2019-05-17T17:00:06.035Z,9.03
2019-05-17T17:03:10.490Z,10.77
2019-05-17T17:06:15.299Z,10.00
2019-05-17T17:09:19.718Z,9.43
2019-05-17T17:12:24.224Z,9.83
2019-05-17T17:15:28.735Z,10.33
2019-05-17T17:18:33.384Z,15.13
2019-05-17T17:21:40.042Z,13.70
2019-05-17T17:24:44.811Z,24.40
2019-05-17T17:27:50.818Z,16.93
2019-05-17T17:30:55.352Z,14.30
2019-05-17T17:33:59.779Z,13.67
2019-05-17T17:37:04.283Z,8.13
2019-05-17T17:40:09.187Z,7.53
2019-05-17T17:43:15.603Z,6.17
2019-05-17T17:46:20.271Z,5.67
2019-05-17T17:49:25.028Z,5.50
2019-05-17T17:52:29.641Z,4.23
2019-05-17T17:55:38.474Z,5.70
2019-05-17T17:58:42.950Z,5.93
2019-05-17T18:01:47.552Z,4.23
2019-05-17T18:04:52.604Z,6.87
2019-05-17T18:08:00.602Z,6.53
2019-05-17T18:11:05.561Z,4.37
2019-05-17T18:14:13.597Z,4.53
2019-05-17T18:17:17.507Z,5.53
2019-05-17T18:20:23.266Z,3.90
2019-05-17T18:23:27.932Z,6.50
2019-05-17T18:26:32.660Z,6.83
2019-05-17T18:29:37.373Z,8.40
2019-05-17T18:32:41.971Z,8.50
2019-05-17T18:35:46.521Z,7.47
2019-05-17T18:38:53.675Z,6.97
2019-05-17T18:41:59.887Z,8.80
2019-05-17T18:45:04.650Z,11.67
2019-05-17T18:48:09.094Z,11.87
2019-05-17T18:51:14.529Z,8.43
2019-05-17T18:54:19.736Z,9.17
2019-05-17T18:57:27.024Z,8.43
2019-05-17T19:00:31.609Z,13.17
2019-05-17T19:03:36.153Z,11.43
2019-05-17T19:06:40.666Z,10.47
2019-05-17T19:09:45.336Z,15.60
2019-05-17T19:12:50.963Z,14.53
2019-05-17T19:15:56.267Z,29.90
2019-05-17T19:19:01.673Z,10.13
2019-05-17T19:22:06.578Z,10.47
2019-05-17T19:25:12.092Z,15.43
2019-05-17T19:28:17.610Z,71.70
2019-05-17T19:31:24.373Z,129.87
2019-05-17T19:34:30.205Z,154.67
2019-05-17T19:37:35.782Z,141.80
2019-05-17T19:40:41.620Z,128.03
2019-05-17T19:43:47.108Z,103.07
2019-05-17T19:46:52.712Z,97.30
2019-05-17T19:49:57.551Z,83.47
2019-05-17T19:53:05.015Z,69.53
2019-05-17T19:56:09.988Z,62.17
2019-05-17T19:59:14.688Z,50.73
2019-05-17T20:02:19.888Z,47.03
2019-05-17T20:05:25.445Z,49.97
2019-05-17T20:08:31.605Z,37.27
2019-05-17T20:11:39.142Z,39.87
2019-05-17T20:14:44.396Z,34.27
2019-05-17T20:17:49.587Z,29.63
2019-05-17T20:20:54.345Z,21.13
2019-05-17T20:23:58.978Z,21.67
2019-05-17T20:27:03.829Z,19.73
2019-05-17T20:30:10.498Z,18.27
2019-05-17T20:33:15.291Z,18.30
2019-05-17T20:36:20.031Z,17.87
2019-05-17T20:39:24.656Z,15.50
2019-05-17T20:42:29.371Z,15.27
2019-05-17T20:45:34.439Z,17.53
2019-05-17T20:48:39.194Z,14.77
2019-05-17T20:51:43.906Z,14.20
2019-05-17T20:54:48.700Z,21.77
2019-05-17T20:57:53.343Z,15.37
2019-05-17T21:00:57.938Z,15.80
2019-05-17T21:04:05.780Z,17.10
2019-05-17T21:07:10.496Z,20.47
2019-05-17T21:10:17.417Z,19.03
2019-05-17T21:13:21.901Z,20.93
2019-05-17T21:16:26.328Z,19.57
2019-05-17T21:19:31.137Z,21.20
2019-05-17T21:22:35.834Z,28.97
2019-05-17T21:25:41.073Z,28.83
2019-05-17T21:28:47.280Z,26.50
2019-05-17T21:31:51.580Z,29.13
2019-05-17T21:34:56.115Z,27.63
2019-05-17T21:38:01.101Z,31.70
2019-05-17T21:41:06.021Z,32.47
2019-05-17T21:44:10.596Z,26.63
2019-05-17T21:47:15.066Z,32.63
2019-05-17T21:50:19.523Z,28.63
2019-05-17T21:53:24.447Z,25.40
2019-05-17T21:56:28.995Z,24.50
2019-05-17T21:59:34.059Z,25.60
2019-05-17T22:02:38.775Z,24.60
2019-05-17T22:05:43.895Z,23.60
2019-05-17T22:08:48.376Z,19.57
2019-05-17T22:11:57.246Z,20.30
2019-05-17T22:15:03.925Z,17.40
2019-05-17T22:18:08.628Z,14.53
2019-05-17T22:21:13.231Z,16.83
2019-05-17T22:24:17.887Z,14.73
2019-05-17T22:27:22.305Z,17.43
2019-05-17T22:30:26.683Z,15.70
2019-05-17T22:33:31.122Z,15.93
2019-05-17T22:36:37.180Z,18.60
2019-05-17T22:39:41.831Z,16.80
2019-05-17T22:42:46.292Z,15.20
2019-05-17T22:45:50.980Z,17.23
2019-05-17T22:48:55.788Z,17.17
2019-05-17T22:52:00.369Z,16.77
2019-05-17T22:55:05.391Z,19.50
2019-05-17T22:58:10.104Z,20.43
2019-05-17T23:01:14.532Z,19.27
2019-05-17T23:04:19.020Z,20.83
2019-05-17T23:07:24.411Z,17.87
2019-05-17T23:10:28.848Z,18.63
2019-05-17T23:13:33.774Z,20.47
2019-05-17T23:16:51.063Z,22.13
2019-05-17T23:19:46.154Z,25.20
2019-05-17T23:22:51.351Z,22.27
2019-05-17T23:25:55.792Z,20.93
2019-05-17T23:29:01.741Z,23.77
2019-05-17T23:32:06.139Z,22.13
2019-05-17T23:35:11.173Z,21.97
2019-05-17T23:38:16.678Z,21.40
2019-05-17T23:41:21.121Z,23.77
2019-05-17T23:44:25.996Z,20.57
2019-05-17T23:47:31.580Z,20.90
2019-05-17T23:50:36.136Z,22.10
2019-05-17T23:53:40.837Z,18.73
2019-05-17T23:56:46.028Z,19.10
2019-05-17T23:59:51.651Z,20.13
